![]() |
EMODnet Physics ERDDAP
Easier access to scientific data |
log in|
Brought to you by EMODnet Physics |
| Dataset Title: | NDBC - Collection of dew point temperature (DEWT) TimeSeries - IN SITU MultiPointTimeSeriesObservation
|
| Institution: | NDBC (Dataset ID: TS_DEWT_NDBC) |
| Information: | Summary
| License
| FGDC
| ISO 19115
| Metadata
| Background
| Subset
| Data Access Form
| Make a graph
|
| Name | Last modified | Size | Description | |
|---|---|---|---|---|
| Parent Directory | - | - | ||
| 42022_TS_DEWT_012006.nc | 26-Oct-2024 15:00 | 440343 | ||
| 42022_TS_DEWT_012007.nc | 26-Oct-2024 15:00 | 587060 | ||
| 42022_TS_DEWT_012008.nc | 26-Oct-2024 15:00 | 586990 | ||
| 42022_TS_DEWT_012013.nc | 26-Oct-2024 15:01 | 587178 | ||
| 42022_TS_DEWT_012014.nc | 26-Oct-2024 15:01 | 587295 | ||
| 42022_TS_DEWT_012016.nc | 26-Oct-2024 15:01 | 587290 | ||
| 42022_TS_DEWT_012017.nc | 26-Oct-2024 15:01 | 587998 | ||
| 42022_TS_DEWT_012018.nc | 26-Oct-2024 15:01 | 587976 | ||
| 42022_TS_DEWT_012019.nc | 26-Oct-2024 15:01 | 587887 | ||
| 42022_TS_DEWT_012020.nc | 26-Oct-2024 15:01 | 439897 | ||
| 42022_TS_DEWT_012021.nc | 26-Oct-2024 15:01 | 437810 | ||
| 42022_TS_DEWT_012022.nc | 26-Oct-2024 15:01 | 429470 | ||
| 42022_TS_DEWT_012023.nc | 26-Oct-2024 15:01 | 588023 | ||
| 42022_TS_DEWT_012024.nc | 16-Sep-2024 16:51 | 588056 | ||
| 42022_TS_DEWT_012025.nc | 07-Feb-2025 10:14 | 439755 | ||
| 42022_TS_DEWT_012026.nc | 03-Feb-2026 05:37 | 587907 | ||
| 42022_TS_DEWT_022006.nc | 26-Oct-2024 15:01 | 588154 | ||
| 42022_TS_DEWT_022007.nc | 26-Oct-2024 15:01 | 588057 | ||
| 42022_TS_DEWT_022008.nc | 26-Oct-2024 15:01 | 588189 | ||
| 42022_TS_DEWT_022013.nc | 26-Oct-2024 15:01 | 587855 | ||
| 42022_TS_DEWT_022014.nc | 26-Oct-2024 15:01 | 438498 | ||
| 42022_TS_DEWT_022016.nc | 26-Oct-2024 15:01 | 438101 | ||
| 42022_TS_DEWT_022017.nc | 26-Oct-2024 15:01 | 438497 | ||
| 42022_TS_DEWT_022018.nc | 26-Oct-2024 15:01 | 437293 | ||
| 42022_TS_DEWT_022019.nc | 26-Oct-2024 15:01 | 438562 | ||
| 42022_TS_DEWT_022020.nc | 26-Oct-2024 15:01 | 438430 | ||
| 42022_TS_DEWT_022021.nc | 26-Oct-2024 15:01 | 439236 | ||
| 42022_TS_DEWT_022022.nc | 26-Oct-2024 15:01 | 438576 | ||
| 42022_TS_DEWT_022023.nc | 26-Oct-2024 15:01 | 438154 | ||
| 42022_TS_DEWT_022024.nc | 16-Sep-2024 16:51 | 438727 | ||
| 42022_TS_DEWT_022025.nc | 01-Mar-2025 07:33 | 439467 | ||
| 42022_TS_DEWT_022026.nc | 01-Mar-2026 07:54 | 438741 | ||
| 42022_TS_DEWT_032004.nc | 26-Oct-2024 15:02 | 438796 | ||
| 42022_TS_DEWT_032006.nc | 26-Oct-2024 15:02 | 433080 | ||
| 42022_TS_DEWT_032007.nc | 26-Oct-2024 15:02 | 419688 | ||
| 42022_TS_DEWT_032008.nc | 26-Oct-2024 15:02 | 587869 | ||
| 42022_TS_DEWT_032016.nc | 26-Oct-2024 15:02 | 587804 | ||
| 42022_TS_DEWT_032017.nc | 26-Oct-2024 15:02 | 438403 | ||
| 42022_TS_DEWT_032018.nc | 26-Oct-2024 15:02 | 430864 | ||
| 42022_TS_DEWT_032019.nc | 26-Oct-2024 15:02 | 440211 | ||
| 42022_TS_DEWT_032020.nc | 26-Oct-2024 15:02 | 430385 | ||
| 42022_TS_DEWT_032021.nc | 26-Oct-2024 15:02 | 588063 | ||
| 42022_TS_DEWT_032022.nc | 26-Oct-2024 15:02 | 439828 | ||
| 42022_TS_DEWT_032023.nc | 26-Oct-2024 15:02 | 587872 | ||
| 42022_TS_DEWT_032025.nc | 02-Apr-2025 05:45 | 587867 | ||
| 42022_TS_DEWT_032026.nc | 21-Mar-2026 11:07 | 587814 | ||
| 42022_TS_DEWT_042004.nc | 26-Oct-2024 15:02 | 588181 | ||
| 42022_TS_DEWT_042006.nc | 26-Oct-2024 15:02 | 435022 | ||
| 42022_TS_DEWT_042007.nc | 26-Oct-2024 15:02 | 588164 | ||
| 42022_TS_DEWT_042008.nc | 26-Oct-2024 15:02 | 588177 | ||
| 42022_TS_DEWT_042012.nc | 26-Oct-2024 15:02 | 439883 | ||
| 42022_TS_DEWT_042016.nc | 26-Oct-2024 15:02 | 440023 | ||
| 42022_TS_DEWT_042017.nc | 26-Oct-2024 15:02 | 425607 | ||
| 42022_TS_DEWT_042018.nc | 26-Oct-2024 15:02 | 439705 | ||
| 42022_TS_DEWT_042019.nc | 26-Oct-2024 15:02 | 439976 | ||
| 42022_TS_DEWT_042020.nc | 26-Oct-2024 15:02 | 439384 | ||
| 42022_TS_DEWT_042021.nc | 26-Oct-2024 15:02 | 439693 | ||
| 42022_TS_DEWT_042022.nc | 26-Oct-2024 15:03 | 440044 | ||
| 42022_TS_DEWT_042023.nc | 26-Oct-2024 15:03 | 439808 | ||
| 42022_TS_DEWT_042025.nc | 01-May-2025 04:12 | 439774 | ||
| 42022_TS_DEWT_052004.nc | 26-Oct-2024 15:03 | 439929 | ||
| 42022_TS_DEWT_052006.nc | 26-Oct-2024 15:03 | 440112 | ||
| 42022_TS_DEWT_052007.nc | 26-Oct-2024 15:03 | 440081 | ||
| 42022_TS_DEWT_052008.nc | 26-Oct-2024 15:03 | 440161 | ||
| 42022_TS_DEWT_052012.nc | 26-Oct-2024 15:03 | 440113 | ||
| 42022_TS_DEWT_052016.nc | 26-Oct-2024 15:03 | 435807 | ||
| 42022_TS_DEWT_052017.nc | 26-Oct-2024 15:03 | 440191 | ||
| 42022_TS_DEWT_052018.nc | 26-Oct-2024 15:03 | 588125 | ||
| 42022_TS_DEWT_052019.nc | 26-Oct-2024 15:03 | 440063 | ||
| 42022_TS_DEWT_052020.nc | 26-Oct-2024 15:03 | 439305 | ||
| 42022_TS_DEWT_052021.nc | 26-Oct-2024 15:03 | 587858 | ||
| 42022_TS_DEWT_052022.nc | 26-Oct-2024 15:03 | 587917 | ||
| 42022_TS_DEWT_052023.nc | 26-Oct-2024 15:03 | 587962 | ||
| 42022_TS_DEWT_052025.nc | 01-Jun-2025 04:22 | 587882 | ||
| 42022_TS_DEWT_062004.nc | 26-Oct-2024 15:03 | 439922 | ||
| 42022_TS_DEWT_062006.nc | 26-Oct-2024 15:03 | 440151 | ||
| 42022_TS_DEWT_062007.nc | 26-Oct-2024 15:04 | 588179 | ||
| 42022_TS_DEWT_062008.nc | 26-Oct-2024 15:04 | 588160 | ||
| 42022_TS_DEWT_062012.nc | 26-Oct-2024 15:04 | 588135 | ||
| 42022_TS_DEWT_062016.nc | 26-Oct-2024 15:04 | 588214 | ||
| 42022_TS_DEWT_062017.nc | 26-Oct-2024 15:04 | 588174 | ||
| 42022_TS_DEWT_062018.nc | 26-Oct-2024 15:04 | 439392 | ||
| 42022_TS_DEWT_062019.nc | 26-Oct-2024 15:04 | 439594 | ||
| 42022_TS_DEWT_062020.nc | 26-Oct-2024 15:04 | 439604 | ||
| 42022_TS_DEWT_062021.nc | 26-Oct-2024 15:04 | 439831 | ||
| 42022_TS_DEWT_062022.nc | 26-Oct-2024 15:04 | 439601 | ||
| 42022_TS_DEWT_062023.nc | 26-Oct-2024 15:04 | 439865 | ||
| 42022_TS_DEWT_062025.nc | 01-Jul-2025 04:25 | 439937 | ||
| 42022_TS_DEWT_072004.nc | 26-Oct-2024 15:04 | 439952 | ||
| 42022_TS_DEWT_072006.nc | 26-Oct-2024 15:04 | 439578 | ||
| 42022_TS_DEWT_072007.nc | 26-Oct-2024 15:04 | 439469 | ||
| 42022_TS_DEWT_072008.nc | 26-Oct-2024 15:04 | 439864 | ||
| 42022_TS_DEWT_072012.nc | 26-Oct-2024 15:04 | 439884 | ||
| 42022_TS_DEWT_072013.nc | 26-Oct-2024 15:04 | 440183 | ||
| 42022_TS_DEWT_072015.nc | 26-Oct-2024 15:04 | 440101 | ||
| 42022_TS_DEWT_072016.nc | 26-Oct-2024 15:04 | 440059 | ||
| 42022_TS_DEWT_072017.nc | 26-Oct-2024 15:05 | 440102 | ||
| 42022_TS_DEWT_072018.nc | 26-Oct-2024 15:05 | 439933 | ||
| 42022_TS_DEWT_072019.nc | 26-Oct-2024 15:05 | 437826 | ||
| 42022_TS_DEWT_072020.nc | 26-Oct-2024 15:05 | 440354 | ||
| 42022_TS_DEWT_072021.nc | 26-Oct-2024 15:05 | 440247 | ||
| 42022_TS_DEWT_072022.nc | 26-Oct-2024 15:05 | 440222 | ||
| 42022_TS_DEWT_072023.nc | 26-Oct-2024 15:05 | 587972 | ||
| 42022_TS_DEWT_072025.nc | 01-Aug-2025 04:33 | 588032 | ||
| 42022_TS_DEWT_082004.nc | 26-Oct-2024 15:05 | 588046 | ||
| 42022_TS_DEWT_082006.nc | 26-Oct-2024 15:05 | 440305 | ||
| 42022_TS_DEWT_082007.nc | 26-Oct-2024 15:05 | 440323 | ||
| 42022_TS_DEWT_082008.nc | 26-Oct-2024 15:05 | 588089 | ||
| 42022_TS_DEWT_082012.nc | 26-Oct-2024 15:05 | 587998 | ||
| 42022_TS_DEWT_082013.nc | 26-Oct-2024 15:05 | 588174 | ||
| 42022_TS_DEWT_082015.nc | 26-Oct-2024 15:05 | 588175 | ||
| 42022_TS_DEWT_082016.nc | 26-Oct-2024 15:05 | 588186 | ||
| 42022_TS_DEWT_082017.nc | 26-Oct-2024 15:05 | 588148 | ||
| 42022_TS_DEWT_082018.nc | 26-Oct-2024 15:05 | 440304 | ||
| 42022_TS_DEWT_082019.nc | 26-Oct-2024 15:06 | 440213 | ||
| 42022_TS_DEWT_082020.nc | 26-Oct-2024 15:06 | 439969 | ||
| 42022_TS_DEWT_082021.nc | 26-Oct-2024 15:06 | 439505 | ||
| 42022_TS_DEWT_082022.nc | 26-Oct-2024 15:06 | 440062 | ||
| 42022_TS_DEWT_082023.nc | 26-Oct-2024 15:06 | 587964 | ||
| 42022_TS_DEWT_082025.nc | 14-Nov-2025 06:12 | 587802 | ||
| 42022_TS_DEWT_092004.nc | 26-Oct-2024 15:06 | 440281 | ||
| 42022_TS_DEWT_092006.nc | 26-Oct-2024 15:06 | 436238 | ||
| 42022_TS_DEWT_092007.nc | 26-Oct-2024 15:06 | 438055 | ||
| 42022_TS_DEWT_092008.nc | 26-Oct-2024 15:06 | 437558 | ||
| 42022_TS_DEWT_092012.nc | 26-Oct-2024 15:06 | 587920 | ||
| 42022_TS_DEWT_092013.nc | 26-Oct-2024 15:06 | 588149 | ||
| 42022_TS_DEWT_092015.nc | 26-Oct-2024 15:06 | 588186 | ||
| 42022_TS_DEWT_092016.nc | 26-Oct-2024 15:06 | 588188 | ||
| 42022_TS_DEWT_092017.nc | 26-Oct-2024 15:06 | 588105 | ||
| 42022_TS_DEWT_092018.nc | 26-Oct-2024 15:06 | 439194 | ||
| 42022_TS_DEWT_092019.nc | 26-Oct-2024 15:06 | 439943 | ||
| 42022_TS_DEWT_092020.nc | 26-Oct-2024 15:06 | 439753 | ||
| 42022_TS_DEWT_092021.nc | 26-Oct-2024 15:06 | 438889 | ||
| 42022_TS_DEWT_092022.nc | 26-Oct-2024 15:06 | 439356 | ||
| 42022_TS_DEWT_092023.nc | 26-Oct-2024 15:06 | 439930 | ||
| 42022_TS_DEWT_092025.nc | 14-Nov-2025 06:12 | 439939 | ||
| 42022_TS_DEWT_102004.nc | 26-Oct-2024 15:07 | 421459 | ||
| 42022_TS_DEWT_102005.nc | 26-Oct-2024 15:07 | 437539 | ||
| 42022_TS_DEWT_102006.nc | 26-Oct-2024 15:07 | 438477 | ||
| 42022_TS_DEWT_102007.nc | 26-Oct-2024 15:07 | 440138 | ||
| 42022_TS_DEWT_102012.nc | 26-Oct-2024 15:07 | 440074 | ||
| 42022_TS_DEWT_102013.nc | 26-Oct-2024 15:07 | 440134 | ||
| 42022_TS_DEWT_102015.nc | 26-Oct-2024 15:07 | 440137 | ||
| 42022_TS_DEWT_102016.nc | 26-Oct-2024 15:07 | 440152 | ||
| 42022_TS_DEWT_102017.nc | 26-Oct-2024 15:07 | 440208 | ||
| 42022_TS_DEWT_102018.nc | 26-Oct-2024 15:07 | 588028 | ||
| 42022_TS_DEWT_102019.nc | 26-Oct-2024 15:07 | 587864 | ||
| 42022_TS_DEWT_102020.nc | 26-Oct-2024 15:07 | 587852 | ||
| 42022_TS_DEWT_102021.nc | 26-Oct-2024 15:07 | 439558 | ||
| 42022_TS_DEWT_102022.nc | 26-Oct-2024 15:07 | 440231 | ||
| 42022_TS_DEWT_102023.nc | 26-Oct-2024 15:07 | 429825 | ||
| 42022_TS_DEWT_102024.nc | 12-Jan-2025 20:38 | 588026 | ||
| 42022_TS_DEWT_102025.nc | 14-Nov-2025 06:12 | 434413 | ||
| 42022_TS_DEWT_112004.nc | 26-Oct-2024 15:07 | 437686 | ||
| 42022_TS_DEWT_112005.nc | 26-Oct-2024 15:07 | 439419 | ||
| 42022_TS_DEWT_112006.nc | 26-Oct-2024 15:08 | 588142 | ||
| 42022_TS_DEWT_112007.nc | 26-Oct-2024 15:08 | 588051 | ||
| 42022_TS_DEWT_112012.nc | 26-Oct-2024 15:08 | 588139 | ||
| 42022_TS_DEWT_112013.nc | 26-Oct-2024 15:08 | 588064 | ||
| 42022_TS_DEWT_112015.nc | 26-Oct-2024 15:08 | 427802 | ||
| 42022_TS_DEWT_112016.nc | 26-Oct-2024 15:08 | 588297 | ||
| 42022_TS_DEWT_112017.nc | 26-Oct-2024 15:08 | 439947 | ||
| 42022_TS_DEWT_112018.nc | 26-Oct-2024 15:08 | 439382 | ||
| 42022_TS_DEWT_112019.nc | 26-Oct-2024 15:08 | 439528 | ||
| 42022_TS_DEWT_112020.nc | 26-Oct-2024 15:08 | 439231 | ||
| 42022_TS_DEWT_112021.nc | 26-Oct-2024 15:08 | 434907 | ||
| 42022_TS_DEWT_112022.nc | 26-Oct-2024 15:08 | 439941 | ||
| 42022_TS_DEWT_112023.nc | 26-Oct-2024 15:08 | 440011 | ||
| 42022_TS_DEWT_112024.nc | 17-Jan-2025 14:50 | 439451 | ||
| 42022_TS_DEWT_112025.nc | 02-Dec-2025 07:58 | 439795 | ||
| 42022_TS_DEWT_122006.nc | 26-Oct-2024 15:08 | 439942 | ||
| 42022_TS_DEWT_122007.nc | 26-Oct-2024 15:08 | 440120 | ||
| 42022_TS_DEWT_122012.nc | 26-Oct-2024 15:08 | 439107 | ||
| 42022_TS_DEWT_122013.nc | 26-Oct-2024 15:08 | 437686 | ||
| 42022_TS_DEWT_122015.nc | 26-Oct-2024 15:09 | 427614 | ||
| 42022_TS_DEWT_122016.nc | 26-Oct-2024 15:09 | 439908 | ||
| 42022_TS_DEWT_122017.nc | 26-Oct-2024 15:09 | 587923 | ||
| 42022_TS_DEWT_122018.nc | 26-Oct-2024 15:09 | 587940 | ||
| 42022_TS_DEWT_122019.nc | 26-Oct-2024 15:09 | 439433 | ||
| 42022_TS_DEWT_122020.nc | 26-Oct-2024 15:09 | 439973 | ||
| 42022_TS_DEWT_122021.nc | 26-Oct-2024 15:09 | 588059 | ||
| 42022_TS_DEWT_122022.nc | 26-Oct-2024 15:09 | 588064 | ||
| 42022_TS_DEWT_122023.nc | 26-Oct-2024 15:09 | 588023 | ||
| 42022_TS_DEWT_122024.nc | 22-Jan-2025 16:31 | 588023 | ||
| 42022_TS_DEWT_122025.nc | 01-Jan-2026 07:13 | 439905 | ||